sensor_id;sensor_type;location;lat;lon;timestamp;P1;durP1;ratioP1;P2;durP2;ratioP2
15818;SDS011;8010;53.986;12.106;2022-11-03T00:01:36;3.27;;;1.30;;
15818;SDS011;8010;53.986;12.106;2022-11-03T00:04:04;3.60;;;2.27;;
15818;SDS011;8010;53.986;12.106;2022-11-03T00:06:30;2.87;;;1.30;;
15818;SDS011;8010;53.986;12.106;2022-11-03T00:08:56;5.07;;;1.53;;
15818;SDS011;8010;53.986;12.106;2022-11-03T00:11:23;2.50;;;1.33;;
15818;SDS011;8010;53.986;12.106;2022-11-03T00:13:49;4.43;;;1.50;;
15818;SDS011;8010;53.986;12.106;2022-11-03T00:16:15;2.27;;;1.83;;
15818;SDS011;8010;53.986;12.106;2022-11-03T00:18:40;6.80;;;1.60;;
15818;SDS011;8010;53.986;12.106;2022-11-03T00:21:07;3.13;;;1.23;;
15818;SDS011;8010;53.986;12.106;2022-11-03T00:23:38;7.13;;;1.57;;
15818;SDS011;8010;53.986;12.106;2022-11-03T00:26:09;3.37;;;1.57;;
15818;SDS011;8010;53.986;12.106;2022-11-03T00:28:40;3.43;;;1.40;;
15818;SDS011;8010;53.986;12.106;2022-11-03T00:31:12;6.93;;;1.70;;
15818;SDS011;8010;53.986;12.106;2022-11-03T00:33:39;5.90;;;2.30;;
15818;SDS011;8010;53.986;12.106;2022-11-03T00:36:06;7.63;;;2.03;;
15818;SDS011;8010;53.986;12.106;2022-11-03T00:38:32;6.47;;;1.87;;
15818;SDS011;8010;53.986;12.106;2022-11-03T00:40:59;3.10;;;1.77;;
15818;SDS011;8010;53.986;12.106;2022-11-03T00:43:26;4.53;;;1.50;;
15818;SDS011;8010;53.986;12.106;2022-11-03T00:45:54;8.10;;;1.90;;
15818;SDS011;8010;53.986;12.106;2022-11-03T00:48:20;4.83;;;1.30;;
15818;SDS011;8010;53.986;12.106;2022-11-03T00:53:37;5.97;;;1.70;;
15818;SDS011;8010;53.986;12.106;2022-11-03T00:56:04;2.73;;;1.40;;
15818;SDS011;8010;53.986;12.106;2022-11-03T00:58:31;3.50;;;1.40;;
15818;SDS011;8010;53.986;12.106;2022-11-03T01:00:57;3.87;;;1.50;;
15818;SDS011;8010;53.986;12.106;2022-11-03T01:03:24;3.20;;;1.83;;
15818;SDS011;8010;53.986;12.106;2022-11-03T01:05:50;8.63;;;1.97;;
15818;SDS011;8010;53.986;12.106;2022-11-03T01:08:34;6.93;;;1.80;;
15818;SDS011;8010;53.986;12.106;2022-11-03T01:11:04;8.33;;;1.93;;
15818;SDS011;8010;53.986;12.106;2022-11-03T01:13:48;2.90;;;1.37;;
15818;SDS011;8010;53.986;12.106;2022-11-03T01:16:14;4.03;;;1.53;;
15818;SDS011;8010;53.986;12.106;2022-11-03T01:18:39;5.47;;;1.63;;
15818;SDS011;8010;53.986;12.106;2022-11-03T01:21:05;3.93;;;1.53;;
15818;SDS011;8010;53.986;12.106;2022-11-03T01:23:30;5.00;;;1.80;;
15818;SDS011;8010;53.986;12.106;2022-11-03T01:26:02;3.77;;;1.60;;
15818;SDS011;8010;53.986;12.106;2022-11-03T01:28:29;5.47;;;1.80;;
15818;SDS011;8010;53.986;12.106;2022-11-03T01:30:54;5.23;;;1.70;;
15818;SDS011;8010;53.986;12.106;2022-11-03T01:33:20;4.90;;;1.83;;
15818;SDS011;8010;53.986;12.106;2022-11-03T01:35:45;4.43;;;2.27;;
15818;SDS011;8010;53.986;12.106;2022-11-03T01:38:11;3.37;;;1.40;;
15818;SDS011;8010;53.986;12.106;2022-11-03T01:40:36;4.93;;;1.40;;
15818;SDS011;8010;53.986;12.106;2022-11-03T01:43:18;6.80;;;1.70;;
15818;SDS011;8010;53.986;12.106;2022-11-03T01:45:48;4.60;;;1.50;;
15818;SDS011;8010;53.986;12.106;2022-11-03T01:48:17;6.47;;;1.90;;
15818;SDS011;8010;53.986;12.106;2022-11-03T01:50:47;6.50;;;1.70;;
15818;SDS011;8010;53.986;12.106;2022-11-03T01:53:13;5.27;;;1.80;;
15818;SDS011;8010;53.986;12.106;2022-11-03T01:55:41;5.43;;;1.70;;
15818;SDS011;8010;53.986;12.106;2022-11-03T02:00:40;3.93;;;1.73;;
15818;SDS011;8010;53.986;12.106;2022-11-03T02:03:07;3.67;;;1.97;;
15818;SDS011;8010;53.986;12.106;2022-11-03T02:05:33;5.03;;;1.87;;
15818;SDS011;8010;53.986;12.106;2022-11-03T02:08:01;4.83;;;2.13;;
15818;SDS011;8010;53.986;12.106;2022-11-03T02:10:49;4.83;;;1.97;;
15818;SDS011;8010;53.986;12.106;2022-11-03T02:13:19;5.60;;;1.83;;
15818;SDS011;8010;53.986;12.106;2022-11-03T02:15:50;5.93;;;2.40;;
15818;SDS011;8010;53.986;12.106;2022-11-03T02:18:19;8.33;;;2.27;;
15818;SDS011;8010;53.986;12.106;2022-11-03T02:20:49;5.40;;;2.00;;
15818;SDS011;8010;53.986;12.106;2022-11-03T02:23:37;4.43;;;2.20;;
15818;SDS011;8010;53.986;12.106;2022-11-03T02:26:11;4.37;;;2.00;;
15818;SDS011;8010;53.986;12.106;2022-11-03T02:28:38;5.20;;;2.47;;
15818;SDS011;8010;53.986;12.106;2022-11-03T02:31:09;6.63;;;2.00;;
15818;SDS011;8010;53.986;12.106;2022-11-03T02:33:44;10.00;;;2.53;;
15818;SDS011;8010;53.986;12.106;2022-11-03T02:39:14;5.20;;;2.50;;
15818;SDS011;8010;53.986;12.106;2022-11-03T02:41:46;2.73;;;2.10;;
15818;SDS011;8010;53.986;12.106;2022-11-03T02:44:15;8.50;;;2.30;;
15818;SDS011;8010;53.986;12.106;2022-11-03T02:46:43;7.57;;;2.30;;
15818;SDS011;8010;53.986;12.106;2022-11-03T02:49:11;4.53;;;2.40;;
15818;SDS011;8010;53.986;12.106;2022-11-03T02:51:38;3.07;;;1.90;;
15818;SDS011;8010;53.986;12.106;2022-11-03T02:57:04;5.77;;;2.40;;
15818;SDS011;8010;53.986;12.106;2022-11-03T02:59:42;5.67;;;2.40;;
15818;SDS011;8010;53.986;12.106;2022-11-03T03:02:13;6.23;;;2.60;;
15818;SDS011;8010;53.986;12.106;2022-11-03T03:04:45;6.43;;;2.40;;
15818;SDS011;8010;53.986;12.106;2022-11-03T03:07:21;3.73;;;2.03;;
15818;SDS011;8010;53.986;12.106;2022-11-03T03:09:57;5.33;;;2.20;;
15818;SDS011;8010;53.986;12.106;2022-11-03T03:12:30;5.67;;;2.20;;
15818;SDS011;8010;53.986;12.106;2022-11-03T03:14:58;8.67;;;2.33;;
15818;SDS011;8010;53.986;12.106;2022-11-03T03:17:31;5.60;;;1.93;;
15818;SDS011;8010;53.986;12.106;2022-11-03T03:20:13;5.00;;;2.23;;
15818;SDS011;8010;53.986;12.106;2022-11-03T03:25:53;3.23;;;2.10;;
15818;SDS011;8010;53.986;12.106;2022-11-03T03:28:32;5.50;;;2.23;;
15818;SDS011;8010;53.986;12.106;2022-11-03T03:31:05;7.80;;;2.77;;
15818;SDS011;8010;53.986;12.106;2022-11-03T03:33:34;4.80;;;1.93;;
15818;SDS011;8010;53.986;12.106;2022-11-03T03:36:01;6.10;;;2.03;;
15818;SDS011;8010;53.986;12.106;2022-11-03T03:38:30;4.23;;;2.17;;
15818;SDS011;8010;53.986;12.106;2022-11-03T03:41:01;5.93;;;2.47;;
15818;SDS011;8010;53.986;12.106;2022-11-03T03:43:28;5.10;;;2.17;;
15818;SDS011;8010;53.986;12.106;2022-11-03T03:45:57;4.53;;;2.00;;
15818;SDS011;8010;53.986;12.106;2022-11-03T03:48:27;6.73;;;1.80;;
15818;SDS011;8010;53.986;12.106;2022-11-03T03:50:53;4.90;;;1.73;;
15818;SDS011;8010;53.986;12.106;2022-11-03T03:53:19;5.07;;;2.37;;
15818;SDS011;8010;53.986;12.106;2022-11-03T03:55:48;5.07;;;2.20;;
15818;SDS011;8010;53.986;12.106;2022-11-03T03:58:16;4.27;;;1.87;;
15818;SDS011;8010;53.986;12.106;2022-11-03T04:00:42;10.03;;;1.90;;
15818;SDS011;8010;53.986;12.106;2022-11-03T04:03:18;4.57;;;1.93;;
15818;SDS011;8010;53.986;12.106;2022-11-03T04:05:45;7.43;;;2.00;;
15818;SDS011;8010;53.986;12.106;2022-11-03T04:08:12;3.77;;;1.97;;
15818;SDS011;8010;53.986;12.106;2022-11-03T04:10:38;7.30;;;2.20;;
15818;SDS011;8010;53.986;12.106;2022-11-03T04:13:04;5.83;;;1.80;;
15818;SDS011;8010;53.986;12.106;2022-11-03T04:15:49;8.03;;;2.00;;
15818;SDS011;8010;53.986;12.106;2022-11-03T04:18:33;4.43;;;2.40;;
15818;SDS011;8010;53.986;12.106;2022-11-03T04:21:17;6.60;;;2.37;;
15818;SDS011;8010;53.986;12.106;2022-11-03T04:24:15;7.20;;;2.17;;
15818;SDS011;8010;53.986;12.106;2022-11-03T04:26:40;4.67;;;1.97;;
15818;SDS011;8010;53.986;12.106;2022-11-03T04:29:08;3.90;;;1.90;;
15818;SDS011;8010;53.986;12.106;2022-11-03T04:31:34;8.30;;;2.17;;
15818;SDS011;8010;53.986;12.106;2022-11-03T04:34:02;5.63;;;2.00;;
15818;SDS011;8010;53.986;12.106;2022-11-03T04:36:28;7.43;;;2.30;;
15818;SDS011;8010;53.986;12.106;2022-11-03T04:38:54;3.93;;;2.07;;
15818;SDS011;8010;53.986;12.106;2022-11-03T04:41:37;2.80;;;1.83;;
15818;SDS011;8010;53.986;12.106;2022-11-03T04:44:03;4.33;;;1.90;;
15818;SDS011;8010;53.986;12.106;2022-11-03T04:46:36;4.67;;;1.97;;
15818;SDS011;8010;53.986;12.106;2022-11-03T04:49:01;3.37;;;1.70;;
15818;SDS011;8010;53.986;12.106;2022-11-03T04:51:30;5.20;;;2.13;;
15818;SDS011;8010;53.986;12.106;2022-11-03T04:54:02;8.80;;;1.67;;
15818;SDS011;8010;53.986;12.106;2022-11-03T04:56:30;4.00;;;1.73;;
15818;SDS011;8010;53.986;12.106;2022-11-03T04:58:57;5.60;;;1.60;;
15818;SDS011;8010;53.986;12.106;2022-11-03T05:01:23;3.57;;;1.50;;
15818;SDS011;8010;53.986;12.106;2022-11-03T05:03:51;3.53;;;1.70;;
15818;SDS011;8010;53.986;12.106;2022-11-03T05:06:19;8.47;;;2.50;;
15818;SDS011;8010;53.986;12.106;2022-11-03T05:08:54;6.63;;;1.90;;
15818;SDS011;8010;53.986;12.106;2022-11-03T05:11:30;4.90;;;1.77;;
15818;SDS011;8010;53.986;12.106;2022-11-03T05:14:03;3.93;;;1.60;;
15818;SDS011;8010;53.986;12.106;2022-11-03T05:16:38;3.27;;;1.43;;
15818;SDS011;8010;53.986;12.106;2022-11-03T05:19:03;5.57;;;1.70;;
15818;SDS011;8010;53.986;12.106;2022-11-03T05:21:35;6.13;;;1.70;;
15818;SDS011;8010;53.986;12.106;2022-11-03T05:24:01;5.90;;;1.80;;
15818;SDS011;8010;53.986;12.106;2022-11-03T05:26:33;5.60;;;1.87;;
15818;SDS011;8010;53.986;12.106;2022-11-03T05:29:01;5.17;;;1.57;;
15818;SDS011;8010;53.986;12.106;2022-11-03T05:31:33;5.83;;;1.93;;
15818;SDS011;8010;53.986;12.106;2022-11-03T05:34:01;4.37;;;1.70;;
15818;SDS011;8010;53.986;12.106;2022-11-03T05:36:38;2.97;;;2.13;;
15818;SDS011;8010;53.986;12.106;2022-11-03T05:39:14;8.53;;;2.23;;
15818;SDS011;8010;53.986;12.106;2022-11-03T05:41:51;5.87;;;1.90;;
15818;SDS011;8010;53.986;12.106;2022-11-03T05:44:33;4.07;;;1.63;;
15818;SDS011;8010;53.986;12.106;2022-11-03T05:47:02;8.13;;;2.10;;
15818;SDS011;8010;53.986;12.106;2022-11-03T05:49:42;5.40;;;2.57;;
15818;SDS011;8010;53.986;12.106;2022-11-03T05:52:12;7.53;;;2.40;;
15818;SDS011;8010;53.986;12.106;2022-11-03T05:54:46;6.83;;;2.50;;
15818;SDS011;8010;53.986;12.106;2022-11-03T05:57:13;5.27;;;2.80;;
15818;SDS011;8010;53.986;12.106;2022-11-03T05:59:39;6.07;;;2.27;;
15818;SDS011;8010;53.986;12.106;2022-11-03T06:02:07;5.63;;;2.60;;
15818;SDS011;8010;53.986;12.106;2022-11-03T06:04:57;4.43;;;2.07;;
15818;SDS011;8010;53.986;12.106;2022-11-03T06:07:23;6.17;;;2.37;;
15818;SDS011;8010;53.986;12.106;2022-11-03T06:09:54;4.97;;;2.20;;
15818;SDS011;8010;53.986;12.106;2022-11-03T06:12:20;7.30;;;2.97;;
15818;SDS011;8010;53.986;12.106;2022-11-03T06:14:48;8.23;;;2.90;;
15818;SDS011;8010;53.986;12.106;2022-11-03T06:17:23;5.10;;;2.57;;
15818;SDS011;8010;53.986;12.106;2022-11-03T06:19:51;4.80;;;2.40;;
15818;SDS011;8010;53.986;12.106;2022-11-03T06:22:23;10.27;;;2.40;;
15818;SDS011;8010;53.986;12.106;2022-11-03T06:25:19;4.50;;;2.57;;
15818;SDS011;8010;53.986;12.106;2022-11-03T06:27:55;4.80;;;2.27;;
15818;SDS011;8010;53.986;12.106;2022-11-03T06:30:30;6.43;;;2.23;;
15818;SDS011;8010;53.986;12.106;2022-11-03T06:32:58;7.17;;;2.20;;
15818;SDS011;8010;53.986;12.106;2022-11-03T06:35:28;4.70;;;1.93;;
15818;SDS011;8010;53.986;12.106;2022-11-03T06:37:54;11.50;;;2.60;;
15818;SDS011;8010;53.986;12.106;2022-11-03T06:42:53;4.93;;;2.53;;
15818;SDS011;8010;53.986;12.106;2022-11-03T06:45:23;6.50;;;2.43;;
15818;SDS011;8010;53.986;12.106;2022-11-03T06:47:50;7.83;;;2.30;;
15818;SDS011;8010;53.986;12.106;2022-11-03T06:50:38;6.67;;;2.27;;
15818;SDS011;8010;53.986;12.106;2022-11-03T06:53:02;4.17;;;1.87;;
15818;SDS011;8010;53.986;12.106;2022-11-03T06:55:29;4.60;;;2.20;;
15818;SDS011;8010;53.986;12.106;2022-11-03T06:57:57;7.43;;;2.30;;
15818;SDS011;8010;53.986;12.106;2022-11-03T07:00:27;5.17;;;2.27;;
15818;SDS011;8010;53.986;12.106;2022-11-03T07:03:07;4.83;;;2.10;;
15818;SDS011;8010;53.986;12.106;2022-11-03T07:05:41;9.93;;;2.67;;
15818;SDS011;8010;53.986;12.106;2022-11-03T07:08:20;5.23;;;2.03;;
15818;SDS011;8010;53.986;12.106;2022-11-03T07:10:49;5.93;;;2.10;;
15818;SDS011;8010;53.986;12.106;2022-11-03T07:13:21;6.00;;;3.17;;
15818;SDS011;8010;53.986;12.106;2022-11-03T07:15:48;5.03;;;2.30;;
15818;SDS011;8010;53.986;12.106;2022-11-03T07:20:55;5.03;;;2.23;;
15818;SDS011;8010;53.986;12.106;2022-11-03T07:23:23;5.37;;;2.40;;
15818;SDS011;8010;53.986;12.106;2022-11-03T07:25:55;8.10;;;2.63;;
15818;SDS011;8010;53.986;12.106;2022-11-03T07:28:27;6.97;;;2.03;;
15818;SDS011;8010;53.986;12.106;2022-11-03T07:31:01;3.83;;;2.00;;
15818;SDS011;8010;53.986;12.106;2022-11-03T07:33:38;3.87;;;2.07;;
15818;SDS011;8010;53.986;12.106;2022-11-03T07:36:03;5.67;;;2.17;;
15818;SDS011;8010;53.986;12.106;2022-11-03T07:38:30;6.33;;;2.37;;
15818;SDS011;8010;53.986;12.106;2022-11-03T07:40:57;6.67;;;2.50;;
15818;SDS011;8010;53.986;12.106;2022-11-03T07:43:27;10.67;;;2.70;;
15818;SDS011;8010;53.986;12.106;2022-11-03T07:45:56;7.47;;;2.70;;
15818;SDS011;8010;53.986;12.106;2022-11-03T07:51:28;5.27;;;2.73;;
15818;SDS011;8010;53.986;12.106;2022-11-03T07:56:41;4.90;;;2.63;;
15818;SDS011;8010;53.986;12.106;2022-11-03T08:01:56;3.70;;;2.00;;
15818;SDS011;8010;53.986;12.106;2022-11-03T08:04:29;6.03;;;2.33;;
15818;SDS011;8010;53.986;12.106;2022-11-03T08:06:57;4.60;;;2.10;;
15818;SDS011;8010;53.986;12.106;2022-11-03T08:09:23;4.23;;;2.23;;
15818;SDS011;8010;53.986;12.106;2022-11-03T08:11:49;4.77;;;2.23;;
15818;SDS011;8010;53.986;12.106;2022-11-03T08:14:15;7.27;;;2.60;;
15818;SDS011;8010;53.986;12.106;2022-11-03T08:16:41;6.33;;;2.27;;
15818;SDS011;8010;53.986;12.106;2022-11-03T08:19:06;6.07;;;2.00;;
15818;SDS011;8010;53.986;12.106;2022-11-03T08:21:32;6.80;;;2.53;;
15818;SDS011;8010;53.986;12.106;2022-11-03T08:23:58;8.80;;;2.50;;
15818;SDS011;8010;53.986;12.106;2022-11-03T08:26:23;5.53;;;2.27;;
15818;SDS011;8010;53.986;12.106;2022-11-03T08:28:49;4.83;;;2.47;;
15818;SDS011;8010;53.986;12.106;2022-11-03T08:31:15;3.73;;;1.70;;
15818;SDS011;8010;53.986;12.106;2022-11-03T08:33:40;3.90;;;2.10;;
15818;SDS011;8010;53.986;12.106;2022-11-03T08:36:06;5.90;;;2.00;;
15818;SDS011;8010;53.986;12.106;2022-11-03T08:38:32;2.47;;;1.90;;
15818;SDS011;8010;53.986;12.106;2022-11-03T08:40:58;4.67;;;2.00;;
15818;SDS011;8010;53.986;12.106;2022-11-03T08:43:24;7.63;;;2.13;;
15818;SDS011;8010;53.986;12.106;2022-11-03T08:45:49;5.20;;;2.80;;
15818;SDS011;8010;53.986;12.106;2022-11-03T08:48:22;5.97;;;2.27;;
15818;SDS011;8010;53.986;12.106;2022-11-03T08:50:51;4.50;;;2.17;;
15818;SDS011;8010;53.986;12.106;2022-11-03T08:53:18;4.70;;;2.33;;
15818;SDS011;8010;53.986;12.106;2022-11-03T08:55:44;5.07;;;2.30;;
15818;SDS011;8010;53.986;12.106;2022-11-03T08:58:10;8.03;;;2.30;;
15818;SDS011;8010;53.986;12.106;2022-11-03T09:00:35;8.47;;;1.70;;
15818;SDS011;8010;53.986;12.106;2022-11-03T09:03:01;3.40;;;1.37;;
15818;SDS011;8010;53.986;12.106;2022-11-03T09:05:26;4.50;;;1.50;;
15818;SDS011;8010;53.986;12.106;2022-11-03T09:07:52;6.60;;;1.50;;
15818;SDS011;8010;53.986;12.106;2022-11-03T09:10:18;4.43;;;1.77;;
15818;SDS011;8010;53.986;12.106;2022-11-03T09:12:44;7.47;;;1.77;;
15818;SDS011;8010;53.986;12.106;2022-11-03T09:15:09;3.37;;;1.37;;
15818;SDS011;8010;53.986;12.106;2022-11-03T09:17:35;4.27;;;1.60;;
15818;SDS011;8010;53.986;12.106;2022-11-03T09:20:01;5.70;;;1.73;;
15818;SDS011;8010;53.986;12.106;2022-11-03T09:22:27;5.83;;;2.10;;
15818;SDS011;8010;53.986;12.106;2022-11-03T09:24:52;5.67;;;1.77;;
15818;SDS011;8010;53.986;12.106;2022-11-03T09:27:18;6.57;;;1.57;;
15818;SDS011;8010;53.986;12.106;2022-11-03T09:29:43;7.00;;;1.70;;
15818;SDS011;8010;53.986;12.106;2022-11-03T09:32:09;5.30;;;1.80;;
15818;SDS011;8010;53.986;12.106;2022-11-03T09:34:35;3.77;;;1.20;;
15818;SDS011;8010;53.986;12.106;2022-11-03T09:37:00;6.80;;;1.67;;
15818;SDS011;8010;53.986;12.106;2022-11-03T09:39:26;4.73;;;2.30;;
15818;SDS011;8010;53.986;12.106;2022-11-03T09:41:51;3.67;;;1.70;;
15818;SDS011;8010;53.986;12.106;2022-11-03T09:44:19;4.30;;;1.60;;
15818;SDS011;8010;53.986;12.106;2022-11-03T09:46:45;3.77;;;1.83;;
15818;SDS011;8010;53.986;12.106;2022-11-03T09:49:12;4.73;;;1.60;;
15818;SDS011;8010;53.986;12.106;2022-11-03T09:51:39;7.83;;;1.67;;
15818;SDS011;8010;53.986;12.106;2022-11-03T09:54:06;3.83;;;1.53;;
15818;SDS011;8010;53.986;12.106;2022-11-03T09:56:35;3.23;;;1.40;;
15818;SDS011;8010;53.986;12.106;2022-11-03T09:59:06;3.83;;;1.33;;
15818;SDS011;8010;53.986;12.106;2022-11-03T10:01:42;3.37;;;1.43;;
15818;SDS011;8010;53.986;12.106;2022-11-03T10:04:10;3.77;;;1.40;;
15818;SDS011;8010;53.986;12.106;2022-11-03T10:06:37;5.67;;;1.50;;
15818;SDS011;8010;53.986;12.106;2022-11-03T10:09:03;3.17;;;1.37;;
15818;SDS011;8010;53.986;12.106;2022-11-03T10:11:29;5.80;;;1.90;;
15818;SDS011;8010;53.986;12.106;2022-11-03T10:13:55;6.93;;;1.63;;
15818;SDS011;8010;53.986;12.106;2022-11-03T10:16:22;4.77;;;1.30;;
15818;SDS011;8010;53.986;12.106;2022-11-03T10:18:50;3.53;;;1.40;;
15818;SDS011;8010;53.986;12.106;2022-11-03T10:21:17;4.33;;;1.10;;
15818;SDS011;8010;53.986;12.106;2022-11-03T10:23:44;4.97;;;1.60;;
15818;SDS011;8010;53.986;12.106;2022-11-03T10:26:11;9.87;;;1.60;;
15818;SDS011;8010;53.986;12.106;2022-11-03T10:28:41;5.33;;;1.37;;
15818;SDS011;8010;53.986;12.106;2022-11-03T10:31:40;3.70;;;1.27;;
15818;SDS011;8010;53.986;12.106;2022-11-03T10:39:51;3.70;;;1.50;;
15818;SDS011;8010;53.986;12.106;2022-11-03T10:42:18;6.43;;;1.77;;
15818;SDS011;8010;53.986;12.106;2022-11-03T10:44:46;4.07;;;1.60;;
15818;SDS011;8010;53.986;12.106;2022-11-03T10:47:22;6.77;;;1.40;;
15818;SDS011;8010;53.986;12.106;2022-11-03T10:49:50;2.83;;;1.30;;
15818;SDS011;8010;53.986;12.106;2022-11-03T10:52:25;4.70;;;1.20;;
15818;SDS011;8010;53.986;12.106;2022-11-03T10:54:54;4.20;;;1.20;;
15818;SDS011;8010;53.986;12.106;2022-11-03T10:57:21;5.20;;;1.63;;
15818;SDS011;8010;53.986;12.106;2022-11-03T10:59:49;5.53;;;1.10;;
15818;SDS011;8010;53.986;12.106;2022-11-03T11:02:17;7.03;;;2.33;;
15818;SDS011;8010;53.986;12.106;2022-11-03T11:04:45;6.87;;;1.40;;
15818;SDS011;8010;53.986;12.106;2022-11-03T11:07:19;5.80;;;1.50;;
15818;SDS011;8010;53.986;12.106;2022-11-03T11:09:48;4.73;;;1.23;;
15818;SDS011;8010;53.986;12.106;2022-11-03T11:12:15;6.67;;;1.40;;
15818;SDS011;8010;53.986;12.106;2022-11-03T11:14:52;5.63;;;1.70;;
15818;SDS011;8010;53.986;12.106;2022-11-03T11:17:38;6.53;;;1.27;;
15818;SDS011;8010;53.986;12.106;2022-11-03T11:20:17;4.90;;;1.40;;
15818;SDS011;8010;53.986;12.106;2022-11-03T11:22:53;5.07;;;1.30;;
15818;SDS011;8010;53.986;12.106;2022-11-03T11:25:19;5.60;;;1.30;;
15818;SDS011;8010;53.986;12.106;2022-11-03T11:37:50;6.40;;;1.87;;
15818;SDS011;8010;53.986;12.106;2022-11-03T11:48:30;3.83;;;1.40;;
15818;SDS011;8010;53.986;12.106;2022-11-03T11:50:56;3.03;;;1.23;;
15818;SDS011;8010;53.986;12.106;2022-11-03T11:53:22;4.97;;;2.03;;
15818;SDS011;8010;53.986;12.106;2022-11-03T11:55:50;4.67;;;1.57;;
15818;SDS011;8010;53.986;12.106;2022-11-03T12:03:53;5.37;;;1.40;;
15818;SDS011;8010;53.986;12.106;2022-11-03T12:06:33;3.10;;;1.50;;
15818;SDS011;8010;53.986;12.106;2022-11-03T12:09:04;5.27;;;1.60;;
15818;SDS011;8010;53.986;12.106;2022-11-03T12:11:49;5.90;;;1.73;;
15818;SDS011;8010;53.986;12.106;2022-11-03T12:19:44;3.77;;;1.63;;
15818;SDS011;8010;53.986;12.106;2022-11-03T12:22:37;6.00;;;1.30;;
15818;SDS011;8010;53.986;12.106;2022-11-03T12:25:05;5.70;;;1.50;;
15818;SDS011;8010;53.986;12.106;2022-11-03T12:27:50;4.33;;;1.20;;
15818;SDS011;8010;53.986;12.106;2022-11-03T12:30:17;4.70;;;1.50;;
15818;SDS011;8010;53.986;12.106;2022-11-03T12:32:43;4.00;;;1.20;;
15818;SDS011;8010;53.986;12.106;2022-11-03T12:35:10;7.30;;;1.73;;
15818;SDS011;8010;53.986;12.106;2022-11-03T12:37:37;3.47;;;1.37;;
15818;SDS011;8010;53.986;12.106;2022-11-03T12:40:03;6.00;;;1.50;;
15818;SDS011;8010;53.986;12.106;2022-11-03T12:42:30;4.93;;;1.60;;
15818;SDS011;8010;53.986;12.106;2022-11-03T12:44:55;5.67;;;1.70;;
15818;SDS011;8010;53.986;12.106;2022-11-03T12:47:21;3.93;;;1.60;;
15818;SDS011;8010;53.986;12.106;2022-11-03T12:49:47;6.53;;;1.30;;
15818;SDS011;8010;53.986;12.106;2022-11-03T12:52:12;4.00;;;1.90;;
15818;SDS011;8010;53.986;12.106;2022-11-03T12:54:38;4.07;;;1.33;;
15818;SDS011;8010;53.986;12.106;2022-11-03T12:57:04;4.30;;;1.30;;
15818;SDS011;8010;53.986;12.106;2022-11-03T12:59:29;4.70;;;1.40;;
15818;SDS011;8010;53.986;12.106;2022-11-03T13:01:55;4.83;;;1.40;;
15818;SDS011;8010;53.986;12.106;2022-11-03T13:04:20;5.40;;;1.50;;
15818;SDS011;8010;53.986;12.106;2022-11-03T13:06:46;6.47;;;1.77;;
15818;SDS011;8010;53.986;12.106;2022-11-03T13:09:11;5.27;;;1.40;;
15818;SDS011;8010;53.986;12.106;2022-11-03T13:11:37;7.77;;;1.50;;
15818;SDS011;8010;53.986;12.106;2022-11-03T13:14:21;4.97;;;1.50;;
15818;SDS011;8010;53.986;12.106;2022-11-03T13:16:46;4.20;;;1.60;;
15818;SDS011;8010;53.986;12.106;2022-11-03T13:19:12;4.67;;;2.17;;
15818;SDS011;8010;53.986;12.106;2022-11-03T13:21:37;6.50;;;2.10;;
15818;SDS011;8010;53.986;12.106;2022-11-03T13:24:03;6.27;;;1.87;;
15818;SDS011;8010;53.986;12.106;2022-11-03T13:26:29;7.13;;;1.60;;
15818;SDS011;8010;53.986;12.106;2022-11-03T13:28:54;5.07;;;1.57;;
15818;SDS011;8010;53.986;12.106;2022-11-03T13:31:20;3.90;;;1.40;;
15818;SDS011;8010;53.986;12.106;2022-11-03T13:33:45;6.33;;;1.60;;
15818;SDS011;8010;53.986;12.106;2022-11-03T13:36:11;4.83;;;1.50;;
15818;SDS011;8010;53.986;12.106;2022-11-03T13:38:36;3.93;;;1.70;;
15818;SDS011;8010;53.986;12.106;2022-11-03T13:41:02;4.03;;;1.60;;
15818;SDS011;8010;53.986;12.106;2022-11-03T13:43:27;4.87;;;1.43;;
15818;SDS011;8010;53.986;12.106;2022-11-03T13:45:53;4.50;;;1.83;;
15818;SDS011;8010;53.986;12.106;2022-11-03T13:48:19;6.77;;;1.70;;
15818;SDS011;8010;53.986;12.106;2022-11-03T13:50:44;5.10;;;1.67;;
15818;SDS011;8010;53.986;12.106;2022-11-03T13:53:10;8.17;;;2.03;;
15818;SDS011;8010;53.986;12.106;2022-11-03T13:55:35;8.40;;;1.93;;
15818;SDS011;8010;53.986;12.106;2022-11-03T13:58:01;3.63;;;1.57;;
15818;SDS011;8010;53.986;12.106;2022-11-03T14:00:27;7.27;;;1.90;;
15818;SDS011;8010;53.986;12.106;2022-11-03T14:02:52;3.40;;;1.33;;
15818;SDS011;8010;53.986;12.106;2022-11-03T14:05:18;6.07;;;2.10;;
15818;SDS011;8010;53.986;12.106;2022-11-03T14:07:43;4.33;;;1.70;;
15818;SDS011;8010;53.986;12.106;2022-11-03T14:10:09;4.50;;;1.67;;
15818;SDS011;8010;53.986;12.106;2022-11-03T14:12:34;5.93;;;2.27;;
15818;SDS011;8010;53.986;12.106;2022-11-03T14:15:01;4.87;;;1.90;;
15818;SDS011;8010;53.986;12.106;2022-11-03T14:17:29;5.80;;;2.27;;
15818;SDS011;8010;53.986;12.106;2022-11-03T14:19:54;4.90;;;1.90;;
15818;SDS011;8010;53.986;12.106;2022-11-03T14:22:20;4.60;;;2.17;;
15818;SDS011;8010;53.986;12.106;2022-11-03T14:24:47;6.63;;;1.90;;
15818;SDS011;8010;53.986;12.106;2022-11-03T14:27:13;5.10;;;2.33;;
15818;SDS011;8010;53.986;12.106;2022-11-03T14:29:40;5.03;;;1.60;;
15818;SDS011;8010;53.986;12.106;2022-11-03T14:32:06;3.00;;;1.43;;
15818;SDS011;8010;53.986;12.106;2022-11-03T14:34:31;6.53;;;1.67;;
15818;SDS011;8010;53.986;12.106;2022-11-03T14:36:57;6.30;;;1.90;;
15818;SDS011;8010;53.986;12.106;2022-11-03T14:39:22;3.63;;;1.70;;
15818;SDS011;8010;53.986;12.106;2022-11-03T14:41:48;3.37;;;1.70;;
15818;SDS011;8010;53.986;12.106;2022-11-03T14:44:31;3.83;;;1.77;;
15818;SDS011;8010;53.986;12.106;2022-11-03T14:46:59;4.20;;;1.97;;
15818;SDS011;8010;53.986;12.106;2022-11-03T14:49:28;5.20;;;2.07;;
15818;SDS011;8010;53.986;12.106;2022-11-03T14:51:55;5.67;;;1.80;;
15818;SDS011;8010;53.986;12.106;2022-11-03T14:54:21;5.97;;;1.60;;
15818;SDS011;8010;53.986;12.106;2022-11-03T14:56:47;4.13;;;1.70;;
15818;SDS011;8010;53.986;12.106;2022-11-03T14:59:14;7.00;;;1.77;;
15818;SDS011;8010;53.986;12.106;2022-11-03T15:01:39;3.87;;;1.53;;
15818;SDS011;8010;53.986;12.106;2022-11-03T15:04:05;3.57;;;1.60;;
15818;SDS011;8010;53.986;12.106;2022-11-03T15:06:32;4.57;;;1.90;;
15818;SDS011;8010;53.986;12.106;2022-11-03T15:08:58;4.03;;;1.70;;
15818;SDS011;8010;53.986;12.106;2022-11-03T15:11:23;3.33;;;2.00;;
15818;SDS011;8010;53.986;12.106;2022-11-03T15:13:49;8.53;;;2.00;;
15818;SDS011;8010;53.986;12.106;2022-11-03T15:16:15;4.77;;;1.87;;
15818;SDS011;8010;53.986;12.106;2022-11-03T15:18:40;5.13;;;2.07;;
15818;SDS011;8010;53.986;12.106;2022-11-03T15:21:08;5.17;;;2.27;;
15818;SDS011;8010;53.986;12.106;2022-11-03T15:23:34;5.63;;;2.00;;
15818;SDS011;8010;53.986;12.106;2022-11-03T15:25:59;5.17;;;1.53;;
15818;SDS011;8010;53.986;12.106;2022-11-03T15:28:25;3.57;;;1.90;;
15818;SDS011;8010;53.986;12.106;2022-11-03T15:30:51;4.40;;;1.53;;
15818;SDS011;8010;53.986;12.106;2022-11-03T15:33:16;5.07;;;1.40;;
15818;SDS011;8010;53.986;12.106;2022-11-03T15:35:42;5.37;;;1.63;;
15818;SDS011;8010;53.986;12.106;2022-11-03T15:38:07;5.27;;;1.93;;
15818;SDS011;8010;53.986;12.106;2022-11-03T15:40:34;4.30;;;1.83;;
15818;SDS011;8010;53.986;12.106;2022-11-03T15:43:00;3.70;;;1.60;;
15818;SDS011;8010;53.986;12.106;2022-11-03T15:45:25;3.90;;;1.70;;
15818;SDS011;8010;53.986;12.106;2022-11-03T15:47:51;7.23;;;1.50;;
15818;SDS011;8010;53.986;12.106;2022-11-03T15:50:16;7.00;;;1.70;;
15818;SDS011;8010;53.986;12.106;2022-11-03T15:52:42;6.77;;;1.60;;
15818;SDS011;8010;53.986;12.106;2022-11-03T15:55:08;4.30;;;1.80;;
15818;SDS011;8010;53.986;12.106;2022-11-03T15:57:34;4.43;;;1.80;;
15818;SDS011;8010;53.986;12.106;2022-11-03T16:00:00;6.03;;;2.10;;
15818;SDS011;8010;53.986;12.106;2022-11-03T16:02:30;4.13;;;1.47;;